TLPL/UVF METAR and TAF weather

Enter ICAO airport designator
Station Type Date Time Source
TLPL METAR 2024/02/26 17:00 UTC NOAA

TLPL 261700Z 10017KT 9999 SCT026 31/22 Q1015 NOSIG


Station Type Date Time Source
TLPL Decoded METAR 2024/02/26 17:00 UTC NOAA

Hewanorra International Airport, Saint Lucia (TLPL) 13-45N 060-57W 10M
Feb 26, 2024 - 12:00 PM EST / 2024.02.26 1700 UTC
Wind: from the E (100 degrees) at 20 MPH (17 KT):0
Visibility: greater than 7 mile(s):0
Sky conditions: partly cloudy
Temperature: 87 F (31 C)
Heat index: 92.3 F (33.5 C):1
Dew Point: 71 F (22 C)
Relative Humidity: 58%
Pressure (altimeter): 29.97 in. Hg (1015 hPa)
ob: TLPL 261700Z 10017KT 9999 SCT026 31/22 Q1015 NOSIG
cycle: 17

Station Type Date Time Source
TLPL TAF 2024/02/26 18:12 UTC NOAA